Time;durP1;ratioP1;P1;durP2;ratioP2;P2;SDS_P1;SDS_P2;PMS_P1;PMS_P2;Temp;Humidity;BMP_temperature;BMP_pressure;BME280_temperature;BME280_humidity;BME280_pressure;Samples;Min_cycle;Max_cycle;Signal;HPM_P1;HPM_P2
2023/10/27 00:01:18;;;;;;;32.85;20.13;;;;;;;10.40;100.00;99025.34;4991690;28;20033;-76
2023/10/27 00:03:43;;;;;;;32.88;18.25;;;;;;;10.40;100.00;99030.72;5001474;28;20026;-75
2023/10/27 00:06:08;;;;;;;41.20;18.98;;;;;;;10.42;100.00;99035.94;4997855;28;20113;-74
2023/10/27 00:08:33;;;;;;;33.20;20.33;;;;;;;10.41;100.00;99029.72;5003095;28;20029;-75
2023/10/27 00:11:04;;;;;;;35.38;19.83;;;;;;;10.41;100.00;99027.03;5008636;28;20105;-72
2023/10/27 00:13:29;;;;;;;33.85;19.60;;;;;;;10.42;100.00;99023.34;4997027;28;20072;-71
2023/10/27 00:15:54;;;;;;;34.78;19.08;;;;;;;10.41;100.00;99027.03;5013012;28;20022;-72
2023/10/27 00:18:20;;;;;;;31.67;18.38;;;;;;;10.41;100.00;99026.19;5013131;28;20465;-72
2023/10/27 00:20:45;;;;;;;33.55;19.25;;;;;;;10.41;100.00;99023.50;5017412;28;20109;-72
2023/10/27 00:23:10;;;;;;;36.58;19.58;;;;;;;10.41;100.00;99028.88;5013275;28;20022;-72
2023/10/27 00:25:36;;;;;;;37.65;21.52;;;;;;;10.41;100.00;99015.44;5012294;28;20030;-72
2023/10/27 00:28:01;;;;;;;33.35;19.45;;;;;;;10.41;100.00;99021.66;5008455;28;20478;-72
2023/10/27 00:30:29;;;;;;;33.55;20.02;;;;;;;10.40;100.00;99016.47;5002430;28;20048;-73
2023/10/27 00:32:54;;;;;;;33.35;20.67;;;;;;;10.38;100.00;99016.63;5011976;28;20154;-72
2023/10/27 00:35:20;;;;;;;42.22;19.48;;;;;;;10.40;100.00;99019.97;5013719;28;20096;-71
2023/10/27 00:37:45;;;;;;;38.40;20.25;;;;;;;10.40;100.00;99014.59;5025452;28;20037;-72
2023/10/27 00:40:11;;;;;;;37.05;20.33;;;;;;;10.40;100.00;99014.59;5011370;28;20029;-72
2023/10/27 00:42:37;;;;;;;40.45;20.63;;;;;;;10.38;100.00;99013.06;5021113;28;20045;-72
2023/10/27 00:45:03;;;;;;;33.78;20.08;;;;;;;10.38;100.00;99003.19;5026227;28;20018;-71
2023/10/27 00:47:30;;;;;;;36.90;20.20;;;;;;;10.38;100.00;99005.88;5014219;28;20045;-72
2023/10/27 00:49:55;;;;;;;34.00;20.88;;;;;;;10.40;100.00;99005.72;5013617;28;20108;-72
2023/10/27 00:52:24;;;;;;;33.13;20.60;;;;;;;10.41;100.00;99010.06;5013545;28;20111;-72
2023/10/27 00:54:50;;;;;;;35.40;21.00;;;;;;;10.41;100.00;99005.56;5005112;28;20029;-74
2023/10/27 00:57:16;;;;;;;38.47;22.35;;;;;;;10.42;100.00;99003.69;5006090;28;20394;-72
2023/10/27 00:59:42;;;;;;;37.70;22.27;;;;;;;10.42;100.00;99003.69;5007961;28;20056;-72
2023/10/27 01:02:08;;;;;;;38.55;22.50;;;;;;;10.41;100.00;99000.19;5013096;28;20049;-72
2023/10/27 01:04:33;;;;;;;36.15;20.80;;;;;;;10.43;100.00;99006.22;5012511;28;20040;-72
2023/10/27 01:06:58;;;;;;;37.30;20.92;;;;;;;10.43;100.00;99000.84;5012389;28;20514;-72
2023/10/27 01:09:24;;;;;;;36.60;21.35;;;;;;;10.43;100.00;98994.66;5011031;28;20400;-71
2023/10/27 01:11:51;;;;;;;37.42;21.38;;;;;;;10.42;100.00;99001.00;4999944;28;20033;-72
2023/10/27 01:14:17;;;;;;;36.75;19.58;;;;;;;10.40;100.00;98997.66;4997224;28;20113;-73
2023/10/27 01:16:42;;;;;;;33.97;20.23;;;;;;;10.40;100.00;98997.66;5011341;28;20049;-72
2023/10/27 01:19:07;;;;;;;32.05;19.60;;;;;;;10.38;100.00;98995.13;5010432;28;20034;-72
2023/10/27 01:21:32;;;;;;;40.45;19.10;;;;;;;10.39;100.00;98990.59;4987799;28;20095;-73
2023/10/27 01:23:58;;;;;;;37.80;19.98;;;;;;;10.40;100.00;98993.13;5000745;28;20034;-72
2023/10/27 01:26:23;;;;;;;36.95;20.15;;;;;;;10.39;100.00;98994.09;5011454;28;20022;-72
2023/10/27 01:28:48;;;;;;;35.85;18.38;;;;;;;10.37;100.00;98996.13;5016419;28;20029;-73
2023/10/27 01:31:14;;;;;;;32.55;18.55;;;;;;;10.37;100.00;98993.44;5006525;28;20034;-72
2023/10/27 01:33:39;;;;;;;35.15;18.75;;;;;;;10.37;100.00;98993.44;5006762;28;20041;-72
2023/10/27 01:36:05;;;;;;;32.60;18.60;;;;;;;10.37;100.00;98984.53;5015427;28;20025;-73
2023/10/27 01:38:30;;;;;;;34.97;18.35;;;;;;;10.37;100.00;98996.13;5023791;28;20030;-72
2023/10/27 01:40:56;;;;;;;31.55;17.63;;;;;;;10.38;100.00;98994.28;5009058;28;20057;-72
2023/10/27 01:43:21;;;;;;;33.97;16.83;;;;;;;10.36;100.00;98989.06;5003250;28;20033;-71
2023/10/27 01:45:47;;;;;;;31.55;16.88;;;;;;;10.37;100.00;98992.59;5000423;28;20098;-72
2023/10/27 01:48:12;;;;;;;32.78;16.08;;;;;;;10.34;100.00;98991.06;5000641;28;20049;-72
2023/10/27 01:50:37;;;;;;;30.15;14.43;;;;;;;10.35;100.00;98984.69;5004922;28;20104;-72
2023/10/27 01:53:03;;;;;;;30.45;15.68;;;;;;;10.35;100.00;98990.03;5009450;28;20091;-73
2023/10/27 01:55:29;;;;;;;29.95;16.00;;;;;;;10.36;100.00;98986.38;4993202;28;20103;-72
2023/10/27 01:57:54;;;;;;;29.83;17.52;;;;;;;10.34;100.00;98983.00;4996947;28;20113;-72
2023/10/27 02:00:19;;;;;;;28.65;14.30;;;;;;;10.34;100.00;98977.63;5008357;28;20044;-72
2023/10/27 02:02:46;;;;;;;30.83;16.20;;;;;;;10.34;100.00;98979.47;5009234;28;20394;-72
2023/10/27 02:05:12;;;;;;;29.65;14.57;;;;;;;10.35;100.00;98981.16;5012152;28;20403;-72
2023/10/27 02:07:37;;;;;;;33.58;14.98;;;;;;;10.33;100.00;98973.22;5008569;28;20077;-72
2023/10/27 02:10:03;;;;;;;28.23;13.73;;;;;;;10.32;100.00;98975.09;5008100;28;20123;-72
2023/10/27 02:12:28;;;;;;;27.85;12.77;;;;;;;10.30;100.00;98970.88;4993162;28;20261;-72
2023/10/27 02:14:54;;;;;;;30.63;12.93;;;;;;;10.31;100.00;98972.56;5000112;28;20030;-72
2023/10/27 02:17:19;;;;;;;28.83;14.48;;;;;;;10.29;100.00;98963.78;5005125;28;20033;-72
2023/10/27 02:19:45;;;;;;;27.48;12.98;;;;;;;10.29;100.00;98970.03;5008235;28;20025;-72
2023/10/27 02:22:10;;;;;;;25.13;13.68;;;;;;;10.29;100.00;98963.78;5007738;28;20021;-72
2023/10/27 02:24:37;;;;;;;26.10;12.05;;;;;;;10.28;100.00;98962.13;4992231;28;20105;-72
2023/10/27 02:27:03;;;;;;;27.50;12.73;;;;;;;10.28;100.00;98954.09;5009223;28;20026;-72
2023/10/27 02:29:28;;;;;;;27.33;12.85;;;;;;;10.28;100.00;98956.75;4999276;28;20041;-72
2023/10/27 02:31:54;;;;;;;25.40;12.45;;;;;;;10.27;100.00;98961.28;5007662;28;20076;-74
2023/10/27 02:34:19;;;;;;;27.67;12.68;;;;;;;10.25;100.00;98947.19;5012861;28;20380;-75
2023/10/27 02:36:44;;;;;;;27.33;13.25;;;;;;;10.26;100.00;98956.06;5013932;28;20112;-73
2023/10/27 02:39:10;;;;;;;27.23;12.32;;;;;;;10.25;100.00;98952.53;5008261;28;20471;-74
2023/10/27 02:41:36;;;;;;;28.98;12.00;;;;;;;10.22;100.00;98946.63;5008192;28;20026;-74
2023/10/27 02:44:01;;;;;;;23.38;11.02;;;;;;;10.21;100.00;98956.53;5007307;28;20402;-75
2023/10/27 02:46:26;;;;;;;28.40;12.23;;;;;;;10.19;100.00;98942.44;5007863;28;20194;-75
2023/10/27 02:48:52;;;;;;;25.20;10.77;;;;;;;10.19;100.00;98944.25;5007772;28;20475;-75
2023/10/27 02:51:17;;;;;;;27.75;11.90;;;;;;;10.17;100.00;98948.97;5007920;28;20034;-75
2023/10/27 02:53:43;;;;;;;27.23;10.60;;;;;;;10.14;100.00;98942.88;5003668;28;20069;-75
2023/10/27 02:56:09;;;;;;;26.67;11.40;;;;;;;10.13;100.00;98941.22;5002182;28;20053;-75
2023/10/27 02:58:35;;;;;;;30.67;10.30;;;;;;;10.13;100.00;98943.03;5007460;28;20030;-74
2023/10/27 03:01:06;;;;;;;24.35;11.07;;;;;;;10.13;100.00;98943.03;5013380;28;20053;-75
2023/10/27 03:03:32;;;;;;;22.88;10.15;;;;;;;10.10;100.00;98928.13;5005871;28;20044;-75
2023/10/27 03:05:58;;;;;;;29.25;10.02;;;;;;;10.08;100.00;98927.41;5007559;28;20483;-75
2023/10/27 03:08:23;;;;;;;23.50;9.70;;;;;;;10.08;100.00;98930.09;5002996;28;20034;-75
2023/10/27 03:10:48;;;;;;;26.55;9.65;;;;;;;10.08;100.00;98937.31;5006101;28;20099;-75
2023/10/27 03:13:13;;;;;;;24.33;9.48;;;;;;;10.07;100.00;98933.81;5006601;28;20534;-75
2023/10/27 03:15:39;;;;;;;26.90;10.07;;;;;;;10.07;100.00;98931.13;5005028;28;20038;-75
2023/10/27 03:18:06;;;;;;;23.88;9.77;;;;;;;10.05;100.00;98925.03;5004041;28;20052;-75
2023/10/27 03:20:32;;;;;;;21.75;9.20;;;;;;;10.05;100.00;98929.59;5009048;28;20088;-75
2023/10/27 03:22:57;;;;;;;29.00;10.57;;;;;;;10.04;100.00;98928.72;5009862;28;20456;-74
2023/10/27 03:25:22;;;;;;;24.17;9.05;;;;;;;10.04;100.00;98926.03;5010076;28;20034;-75
2023/10/27 03:27:48;;;;;;;24.35;9.50;;;;;;;10.04;100.00;98928.72;5010579;28;20022;-74
2023/10/27 03:30:14;;;;;;;27.65;9.50;;;;;;;10.05;100.00;98932.28;5011067;28;20030;-75
2023/10/27 03:32:39;;;;;;;28.58;9.18;;;;;;;10.04;100.00;98927.88;5023772;28;20033;-74
2023/10/27 03:35:06;;;;;;;23.52;8.38;;;;;;;10.00;100.00;98935.44;5006332;28;20026;-75
2023/10/27 03:37:32;;;;;;;24.63;8.32;;;;;;;9.98;100.00;98929.34;4997765;28;20034;-75
2023/10/27 03:39:57;;;;;;;23.42;9.48;;;;;;;9.97;100.00;98923.16;5010496;28;20088;-74
2023/10/27 03:42:23;;;;;;;25.77;8.30;;;;;;;9.94;100.00;98923.47;5010599;28;20057;-72
2023/10/27 03:44:49;;;;;;;25.90;8.50;;;;;;;9.95;100.00;98918.94;5010680;28;20835;-72
2023/10/27 03:47:15;;;;;;;23.08;8.68;;;;;;;9.94;100.00;98923.47;5007572;28;20630;-72
2023/10/27 03:49:40;;;;;;;22.23;8.25;;;;;;;9.91;100.00;98922.91;5005660;28;20387;-72
2023/10/27 03:52:08;;;;;;;19.38;7.60;;;;;;;9.92;100.00;98924.63;5001164;28;20022;-72
2023/10/27 03:54:34;;;;;;;22.48;7.32;;;;;;;9.88;100.00;98926.78;5011795;28;20483;-72
2023/10/27 03:57:01;;;;;;;21.52;7.53;;;;;;;9.88;100.00;98920.56;5008656;28;20041;-72
2023/10/27 03:59:27;;;;;;;27.45;9.30;;;;;;;9.89;100.00;98917.72;5010768;28;20062;-72
2023/10/27 04:01:52;;;;;;;20.75;7.57;;;;;;;9.86;100.00;98920.72;5015056;28;20052;-72
2023/10/27 04:04:17;;;;;;;23.98;8.18;;;;;;;9.86;100.00;98917.19;4997264;28;20041;-73
2023/10/27 04:06:43;;;;;;;21.75;8.10;;;;;;;9.86;100.00;98917.19;5009322;28;20079;-72
2023/10/27 04:09:09;;;;;;;19.80;7.32;;;;;;;9.84;100.00;98914.66;5015466;28;20038;-72
2023/10/27 04:11:34;;;;;;;19.85;7.10;;;;;;;9.85;100.00;98912.81;5009523;28;20040;-71
2023/10/27 04:13:59;;;;;;;23.15;7.57;;;;;;;9.84;100.00;98916.50;5009914;28;20021;-73
2023/10/27 04:16:24;;;;;;;18.67;7.22;;;;;;;9.79;100.00;98915.13;5005774;28;20081;-72
2023/10/27 04:18:50;;;;;;;21.83;7.38;;;;;;;9.79;100.00;98917.81;5005406;28;20029;-72
2023/10/27 04:21:15;;;;;;;20.65;7.53;;;;;;;9.78;100.00;98918.81;4989644;28;20026;-72
2023/10/27 04:23:40;;;;;;;21.88;7.55;;;;;;;9.77;100.00;98914.44;5012811;28;20127;-72
2023/10/27 04:26:06;;;;;;;20.80;7.07;;;;;;;9.76;100.00;98919.97;5015004;28;20026;-72
2023/10/27 04:28:32;;;;;;;25.10;8.23;;;;;;;9.75;100.00;98913.75;5008633;28;20029;-72
2023/10/27 04:30:57;;;;;;;19.73;7.55;;;;;;;9.76;100.00;98923.47;5011180;28;20033;-72
2023/10/27 04:33:24;;;;;;;22.40;7.40;;;;;;;9.75;100.00;98912.91;5009973;28;20402;-72
2023/10/27 04:35:50;;;;;;;20.55;7.68;;;;;;;9.75;100.00;98915.56;5011034;28;20498;-72
2023/10/27 04:38:15;;;;;;;22.85;7.85;;;;;;;9.77;100.00;98922.47;5016417;28;20087;-72
2023/10/27 04:40:41;;;;;;;24.33;7.88;;;;;;;9.76;100.00;98918.09;5014592;28;20383;-72
2023/10/27 04:43:06;;;;;;;21.02;7.60;;;;;;;9.75;100.00;98919.13;5010741;28;20022;-72
2023/10/27 04:45:31;;;;;;;25.60;8.05;;;;;;;9.76;100.00;98915.41;5010970;28;20472;-72
2023/10/27 04:47:57;;;;;;;20.58;8.20;;;;;;;9.75;100.00;98921.81;5010614;28;20044;-72
2023/10/27 04:50:23;;;;;;;23.50;8.55;;;;;;;9.75;100.00;98921.81;5012117;28;20116;-71
2023/10/27 04:52:49;;;;;;;25.60;8.02;;;;;;;9.75;100.00;98915.56;5007947;28;20554;-72
2023/10/27 04:55:14;;;;;;;22.70;7.65;;;;;;;9.75;100.00;98912.91;5018720;28;20026;-72
2023/10/27 04:57:39;;;;;;;21.17;7.82;;;;;;;9.73;100.00;98918.41;5005338;28;20045;-73
2023/10/27 05:00:05;;;;;;;20.33;7.80;;;;;;;9.72;100.00;98911.38;5007667;28;20044;-72
2023/10/27 05:02:31;;;;;;;18.90;7.38;;;;;;;9.71;100.00;98911.53;5006268;28;20521;-75
2023/10/27 05:04:56;;;;;;;24.90;8.82;;;;;;;9.69;100.00;98902.78;5002436;28;20483;-75
2023/10/27 05:07:22;;;;;;;18.92;6.53;;;;;;;9.68;100.00;98904.66;5003471;28;20414;-75
2023/10/27 05:09:47;;;;;;;23.48;8.23;;;;;;;9.67;100.00;98902.94;5003988;28;20034;-75
2023/10/27 05:12:13;;;;;;;22.40;8.15;;;;;;;9.64;100.00;98894.38;5012866;28;20086;-74
2023/10/27 05:14:39;;;;;;;21.55;7.75;;;;;;;9.62;100.00;98897.22;5004312;28;20033;-75
2023/10/27 05:17:04;;;;;;;18.55;7.25;;;;;;;9.61;100.00;98892.84;4996878;28;20497;-75
2023/10/27 05:19:29;;;;;;;23.70;8.00;;;;;;;9.61;100.00;98900.91;5013955;28;20029;-75
2023/10/27 05:21:54;;;;;;;21.50;7.13;;;;;;;9.63;100.00;98893.53;5004892;28;20021;-75
2023/10/27 05:24:20;;;;;;;19.40;7.05;;;;;;;9.63;100.00;98890.84;5007412;28;20061;-75
2023/10/27 05:26:45;;;;;;;19.83;7.25;;;;;;;9.64;100.00;98895.22;5001848;28;20144;-75
2023/10/27 05:29:10;;;;;;;21.33;8.95;;;;;;;9.66;100.00;98897.75;5002605;28;20044;-74
2023/10/27 05:31:36;;;;;;;20.15;7.50;;;;;;;9.66;100.00;98895.88;5001270;28;20106;-75
2023/10/27 05:34:01;;;;;;;24.02;8.27;;;;;;;9.66;100.00;98889.69;5005261;28;20110;-75
2023/10/27 05:36:26;;;;;;;19.77;7.20;;;;;;;9.67;100.00;98888.72;4999673;28;20053;-75
2023/10/27 05:38:52;;;;;;;22.30;7.63;;;;;;;9.68;100.00;98899.28;4982486;28;20080;-75
2023/10/27 05:41:17;;;;;;;19.50;7.18;;;;;;;9.67;100.00;98894.91;5004600;28;20108;-75
2023/10/27 05:43:43;;;;;;;23.30;7.93;;;;;;;9.70;100.00;98896.44;5007348;28;20038;-75
2023/10/27 05:46:08;;;;;;;24.75;7.75;;;;;;;9.67;100.00;98892.22;5007397;28;20046;-75
2023/10/27 05:48:34;;;;;;;19.80;7.93;;;;;;;9.68;100.00;98898.41;5003229;28;20387;-75
2023/10/27 05:50:59;;;;;;;23.17;8.27;;;;;;;9.71;100.00;98892.78;4985444;28;20117;-75
2023/10/27 05:53:25;;;;;;;19.45;7.75;;;;;;;9.70;100.00;98899.13;4985612;28;20125;-75
2023/10/27 05:55:51;;;;;;;22.45;7.57;;;;;;;9.70;100.00;98891.06;5008675;28;20029;-75
2023/10/27 05:58:16;;;;;;;22.98;8.57;;;;;;;9.69;100.00;98890.22;5009243;28;20026;-75
2023/10/27 06:00:42;;;;;;;22.33;8.25;;;;;;;9.69;100.00;98892.91;5006550;28;20391;-75
2023/10/27 06:03:07;;;;;;;22.33;8.05;;;;;;;9.70;100.00;98899.13;5002291;28;20010;-75
2023/10/27 06:05:32;;;;;;;21.92;8.98;;;;;;;9.68;100.00;98891.22;4999565;28;20466;-75
2023/10/27 06:07:58;;;;;;;20.35;8.30;;;;;;;9.71;100.00;98892.78;5012022;28;20022;-75
2023/10/27 06:10:23;;;;;;;23.52;9.35;;;;;;;9.71;100.00;98895.44;5015836;28;20040;-75
2023/10/27 06:12:48;;;;;;;22.40;9.52;;;;;;;9.71;100.00;98900.81;5008937;28;20146;-73
2023/10/27 06:15:14;;;;;;;21.48;8.73;;;;;;;9.70;100.00;98902.63;5008764;28;20029;-72
2023/10/27 06:17:39;;;;;;;20.35;9.50;;;;;;;9.73;100.00;98905.00;5005447;28;20018;-72
2023/10/27 06:20:05;;;;;;;21.58;8.80;;;;;;;9.71;100.00;98901.66;4990713;28;20107;-72
2023/10/27 06:22:30;;;;;;;21.60;9.32;;;;;;;9.71;100.00;98904.34;5003920;28;20041;-75
2023/10/27 06:24:56;;;;;;;21.73;9.93;;;;;;;9.71;100.00;98904.34;5008506;28;20057;-74
2023/10/27 06:27:21;;;;;;;19.60;7.78;;;;;;;9.71;100.00;98901.66;5008707;28;20060;-74
2023/10/27 06:29:47;;;;;;;23.27;8.73;;;;;;;9.71;100.00;98906.19;4997072;28;20348;-75
2023/10/27 06:32:12;;;;;;;19.10;8.35;;;;;;;9.70;100.00;98908.00;5005620;28;20454;-74
2023/10/27 06:34:38;;;;;;;21.30;8.98;;;;;;;9.72;100.00;98907.84;4994903;28;20037;-75
2023/10/27 06:37:03;;;;;;;21.88;8.65;;;;;;;9.71;100.00;98909.69;5008265;28;20049;-75
2023/10/27 06:39:28;;;;;;;20.58;8.43;;;;;;;9.71;100.00;98909.69;5008017;28;20104;-75
2023/10/27 06:41:54;;;;;;;22.92;8.32;;;;;;;9.70;100.00;98913.38;5003555;28;20328;-75
2023/10/27 06:44:19;;;;;;;20.85;9.10;;;;;;;9.70;100.00;98908.00;5006994;28;20032;-75
2023/10/27 06:46:45;;;;;;;19.02;8.20;;;;;;;9.71;100.00;98915.06;5006333;28;20025;-75
2023/10/27 06:49:11;;;;;;;21.75;8.30;;;;;;;9.70;100.00;98913.38;4990986;28;20026;-75
2023/10/27 06:51:37;;;;;;;20.35;7.22;;;;;;;9.71;100.00;98919.59;5005285;28;20022;-75
2023/10/27 06:54:02;;;;;;;21.52;7.60;;;;;;;9.71;100.00;98917.75;4993752;28;20072;-75
2023/10/27 06:56:28;;;;;;;21.00;8.63;;;;;;;9.72;100.00;98918.56;5009339;28;20053;-75
2023/10/27 06:58:53;;;;;;;22.52;8.20;;;;;;;9.71;100.00;98917.75;5008411;28;20609;-75
2023/10/27 07:01:19;;;;;;;24.30;8.50;;;;;;;9.72;100.00;98927.47;5008687;28;20133;-74
2023/10/27 07:03:44;;;;;;;19.17;7.22;;;;;;;9.73;100.00;98922.94;5009494;28;20023;-75
2023/10/27 07:06:10;;;;;;;21.17;8.18;;;;;;;9.74;100.00;98925.47;5024813;28;20033;-76
2023/10/27 07:08:37;;;;;;;21.60;8.38;;;;;;;9.75;100.00;98929.00;4992630;28;20434;-74
2023/10/27 07:11:03;;;;;;;21.77;8.82;;;;;;;9.78;100.00;98924.19;5015784;28;20021;-75
2023/10/27 07:13:30;;;;;;;20.40;8.50;;;;;;;9.81;100.00;98933.75;5009888;28;20192;-75
2023/10/27 07:15:56;;;;;;;21.58;8.85;;;;;;;9.82;100.00;98934.59;5011536;28;20033;-75
2023/10/27 07:18:21;;;;;;;21.00;8.32;;;;;;;9.81;100.00;98939.13;4987195;28;20176;-75
2023/10/27 07:20:47;;;;;;;22.00;8.90;;;;;;;9.81;100.00;98944.50;5010245;28;20155;-75
2023/10/27 07:23:13;;;;;;;22.35;8.93;;;;;;;9.80;100.00;98949.00;5003508;28;20028;-75
2023/10/27 07:25:38;;;;;;;21.67;8.93;;;;;;;9.82;100.00;98942.66;5010531;28;20030;-75
2023/10/27 07:28:03;;;;;;;22.95;7.90;;;;;;;9.84;100.00;98946.88;5000825;28;20664;-74
2023/10/27 07:30:30;;;;;;;20.77;8.77;;;;;;;9.87;100.00;98951.06;5010285;28;20049;-75
2023/10/27 07:32:56;;;;;;;19.60;8.52;;;;;;;9.91;100.00;98955.13;5010253;28;20018;-73
2023/10/27 07:35:21;;;;;;;20.20;8.93;;;;;;;9.90;100.00;98953.47;5008985;28;20359;-73
2023/10/27 07:37:46;;;;;;;21.02;8.35;;;;;;;9.93;100.00;98963.88;5009544;28;20081;-73
2023/10/27 07:40:13;;;;;;;20.35;8.60;;;;;;;9.93;100.00;98969.25;5008054;28;20113;-73
2023/10/27 07:42:39;;;;;;;18.50;7.97;;;;;;;9.96;100.00;98963.56;4993953;28;20396;-73
2023/10/27 07:45:04;;;;;;;21.33;8.73;;;;;;;9.96;100.00;98964.41;5010041;28;20018;-72
2023/10/27 07:47:30;;;;;;;21.33;9.02;;;;;;;9.94;100.00;98963.72;5009738;28;20601;-73
2023/10/27 07:49:55;;;;;;;20.40;8.57;;;;;;;9.96;100.00;98963.56;5011024;28;20022;-73
2023/10/27 07:52:20;;;;;;;20.92;9.10;;;;;;;9.99;100.00;98971.31;4990444;28;20448;-73
2023/10/27 07:54:46;;;;;;;21.40;8.32;;;;;;;10.01;100.00;98966.63;5006553;28;20057;-73
2023/10/27 07:57:11;;;;;;;22.50;8.70;;;;;;;9.99;100.00;98976.66;4990769;28;20076;-72
2023/10/27 07:59:36;;;;;;;19.38;7.60;;;;;;;10.00;100.00;98981.03;5014160;28;20136;-72
2023/10/27 08:02:04;;;;;;;19.23;8.55;;;;;;;10.01;100.00;98980.03;4991592;28;20144;-73
2023/10/27 08:04:32;;;;;;;21.35;9.35;;;;;;;10.01;100.00;98982.72;5007949;28;20033;-73
2023/10/27 08:06:57;;;;;;;20.83;8.25;;;;;;;10.01;100.00;98985.41;4993411;28;20048;-73
2023/10/27 08:09:23;;;;;;;21.63;8.57;;;;;;;10.00;100.00;98975.69;4995960;28;20113;-73
2023/10/27 08:11:48;;;;;;;21.35;8.27;;;;;;;10.00;100.00;98978.38;5014931;28;20065;-72
2023/10/27 08:14:14;;;;;;;23.80;8.48;;;;;;;10.01;100.00;98966.63;5008902;28;20025;-72
2023/10/27 08:16:39;;;;;;;21.98;8.82;;;;;;;10.05;100.00;98972.53;4990410;28;20490;-72
2023/10/27 08:19:07;;;;;;;19.95;8.70;;;;;;;10.05;100.00;98978.72;5014941;28;20450;-73
2023/10/27 08:21:32;;;;;;;20.50;8.77;;;;;;;10.04;100.00;98982.41;5008822;28;20022;-73
2023/10/27 08:23:58;;;;;;;20.67;8.68;;;;;;;10.06;100.00;98983.09;5000450;28;20032;-72
2023/10/27 08:26:23;;;;;;;20.50;7.70;;;;;;;10.08;100.00;98988.31;5006734;28;20459;-72
2023/10/27 08:28:48;;;;;;;20.00;8.00;;;;;;;10.11;100.00;98991.53;5003085;28;20077;-73
2023/10/27 08:31:16;;;;;;;21.48;8.70;;;;;;;10.12;100.00;98993.22;5013972;28;20132;-72
2023/10/27 08:33:41;;;;;;;20.35;8.80;;;;;;;10.15;100.00;98997.44;5009172;28;20391;-73
2023/10/27 08:36:07;;;;;;;19.30;7.63;;;;;;;10.13;100.00;98996.72;5012060;28;20030;-72
2023/10/27 08:38:32;;;;;;;19.23;6.90;;;;;;;10.17;100.00;99006.16;4999477;28;20030;-72
2023/10/27 08:40:58;;;;;;;17.85;6.75;;;;;;;10.18;100.00;99001.66;5009056;28;20133;-73
2023/10/27 08:43:24;;;;;;;17.42;6.93;;;;;;;10.18;100.00;99010.53;5013585;28;20021;-72
2023/10/27 08:45:51;;;;;;;18.45;6.72;;;;;;;10.19;100.00;99008.69;5011384;28;20157;-72
2023/10/27 08:48:17;;;;;;;18.80;6.85;;;;;;;10.22;100.00;99017.28;5006780;28;20112;-73
2023/10/27 08:50:42;;;;;;;17.88;6.60;;;;;;;10.24;100.00;99009.09;5008446;28;20412;-73
2023/10/27 08:53:12;;;;;;;21.17;7.15;;;;;;;10.24;100.00;99009.09;5021330;28;20026;-69
2023/10/27 08:55:38;;;;;;;20.58;8.35;;;;;;;10.29;100.00;99009.44;5014201;28;20029;-71
2023/10/27 08:58:03;;;;;;;21.45;8.18;;;;;;;10.32;100.00;99006.44;5011958;28;20026;-73
2023/10/27 09:00:28;;;;;;;21.45;8.13;;;;;;;10.31;100.00;99008.28;5014615;28;20056;-72
2023/10/27 09:02:54;;;;;;;19.85;8.45;;;;;;;10.29;100.00;99004.06;5010273;28;20468;-72
2023/10/27 09:05:24;;;;;;;20.25;8.57;;;;;;;10.27;100.00;99006.09;5010053;28;20079;-75
2023/10/27 09:07:49;;;;;;;21.73;8.23;;;;;;;10.32;100.00;99012.69;5008220;28;20030;-72
2023/10/27 09:10:21;;;;;;;21.52;7.40;;;;;;;10.35;100.00;99021.44;5010365;28;20160;-72
2023/10/27 09:12:47;;;;;;;20.77;8.52;;;;;;;10.37;100.00;99014.91;5013296;28;20093;-72
2023/10/27 09:15:13;;;;;;;21.05;8.70;;;;;;;10.37;100.00;99014.91;5012393;28;20084;-72
2023/10/27 09:17:52;;;;;;;20.38;7.93;;;;;;;10.38;100.00;99018.44;5009136;28;20458;-72
2023/10/27 09:20:18;;;;;;;20.20;7.75;;;;;;;10.39;100.00;99014.75;5017758;28;20057;-72
2023/10/27 09:22:55;;;;;;;20.60;8.65;;;;;;;10.39;100.00;99017.44;5013107;28;20018;-72
2023/10/27 09:25:21;;;;;;;19.30;7.63;;;;;;;10.41;100.00;99018.97;5001472;28;20041;-72
2023/10/27 09:27:49;;;;;;;19.77;8.55;;;;;;;10.42;100.00;99017.97;5009956;28;20026;-73
2023/10/27 09:30:37;;;;;;;22.98;8.32;;;;;;;10.46;100.00;99007.75;5017221;28;20057;-72
2023/10/27 09:33:18;;;;;;;20.13;8.00;;;;;;;10.45;100.00;99015.00;5010436;28;20476;-72
2023/10/27 09:35:46;;;;;;;20.73;8.48;;;;;;;10.46;100.00;99008.59;4982404;28;20113;-72
2023/10/27 09:38:13;;;;;;;22.90;8.60;;;;;;;10.47;100.00;99010.28;5006751;28;20026;-72
2023/10/27 09:40:40;;;;;;;22.10;8.65;;;;;;;10.53;100.00;99013.34;4999128;28;20036;-72
2023/10/27 09:43:19;;;;;;;23.27;9.40;;;;;;;10.56;100.00;99023.78;5010727;28;20026;-73
2023/10/27 09:45:55;;;;;;;24.02;8.90;;;;;;;10.56;100.00;99021.09;5015989;28;20022;-72
2023/10/27 09:48:28;;;;;;;21.55;9.80;;;;;;;10.57;100.00;99023.63;5016111;28;20080;-72
2023/10/27 09:51:01;;;;;;;23.98;9.95;;;;;;;10.66;100.00;99019.16;5005788;28;20137;-72
2023/10/27 09:53:30;;;;;;;23.48;9.65;;;;;;;10.72;100.00;99020.34;5007319;28;20033;-72
2023/10/27 09:56:00;;;;;;;23.02;10.40;;;;;;;10.78;100.00;99014.34;5010457;28;20052;-72
2023/10/27 09:58:27;;;;;;;21.83;9.93;;;;;;;10.80;100.00;99015.03;5014867;28;20025;-72
2023/10/27 10:00:54;;;;;;;22.48;9.52;;;;;;;10.81;100.00;99014.88;5013883;28;20423;-72
2023/10/27 10:03:24;;;;;;;22.35;10.15;;;;;;;10.88;100.00;99022.28;5008762;28;20033;-72
2023/10/27 10:06:10;;;;;;;;;;;;;;;10.92;100.00;99018.28;5017505;28;20188;-72
2023/10/27 10:08:35;;;;;;;23.33;10.85;;;;;;;10.94;100.00;99029.72;4999164;28;19921;-72
2023/10/27 10:11:18;;;;;;;22.27;11.07;;;;;;;10.94;100.00;99027.03;5010690;28;20529;-71
2023/10/27 10:13:48;;;;;;;23.00;9.40;;;;;;;10.97;100.00;99046.38;5006997;28;20387;-71
2023/10/27 10:16:14;;;;;;;22.65;10.73;;;;;;;10.98;100.00;99041.81;4987630;28;20755;-72
2023/10/27 10:18:52;;;;;;;21.73;9.48;;;;;;;10.95;100.00;99040.31;5002126;28;20188;-72
2023/10/27 10:21:32;;;;;;;23.80;10.50;;;;;;;10.98;100.00;99041.81;5011041;28;20036;-72
2023/10/27 10:24:03;;;;;;;;;;;;;;;11.01;100.00;99038.81;4994310;28;20052;-72
2023/10/27 10:27:04;;;;;;;22.95;10.15;;;;;;;11.01;100.00;99044.19;5010041;28;19928;-72
2023/10/27 10:29:32;;;;;;;22.60;9.77;;;;;;;10.99;100.00;99040.84;4980974;28;20056;-74
2023/10/27 10:32:33;;;;;;;22.92;10.38;;;;;;;11.02;100.00;99045.88;5001123;28;20871;-74
2023/10/27 10:35:21;;;;;;;24.02;10.27;;;;;;;11.00;100.00;99037.97;5005659;28;20050;-72
2023/10/27 10:37:47;;;;;;;27.77;12.38;;;;;;;10.95;100.00;99034.09;5000758;28;20017;-73
2023/10/27 10:40:26;;;;;;;25.80;12.65;;;;;;;10.94;100.00;99043.16;5007390;28;20037;-72
2023/10/27 10:43:18;;;;;;;30.13;14.77;;;;;;;10.94;100.00;99040.47;5004248;28;20037;-72
2023/10/27 10:45:45;;;;;;;25.08;12.10;;;;;;;10.93;100.00;99041.47;5002128;28;20038;-72
2023/10/27 10:48:12;;;;;;;28.42;14.02;;;;;;;10.93;100.00;99046.84;4988795;28;20870;-72
2023/10/27 10:50:37;;;;;;;25.10;13.05;;;;;;;10.92;100.00;99040.66;4983825;28;20088;-72
2023/10/27 10:53:10;;;;;;;28.50;14.00;;;;;;;10.94;100.00;99043.16;4998993;28;20042;-72
2023/10/27 10:55:46;;;;;;;26.13;13.77;;;;;;;10.94;100.00;99041.31;5003983;28;20495;-72
2023/10/27 10:58:25;;;;;;;29.10;13.77;;;;;;;10.94;100.00;99035.94;5002894;28;20033;-73
2023/10/27 11:00:51;;;;;;;26.35;13.38;;;;;;;10.95;100.00;99043.00;5000361;28;20178;-72
2023/10/27 11:03:18;;;;;;;26.67;13.25;;;;;;;10.98;100.00;99033.75;4980204;28;20026;-75
2023/10/27 11:05:44;;;;;;;28.88;12.68;;;;;;;11.00;100.00;99037.97;4980715;28;20111;-74
2023/10/27 11:08:10;;;;;;;28.92;12.25;;;;;;;11.03;100.00;99034.13;4986667;28;20033;-75
2023/10/27 11:10:35;;;;;;;25.45;12.52;;;;;;;11.06;100.00;99031.13;4984645;28;20038;-75
2023/10/27 11:13:04;;;;;;;28.27;12.00;;;;;;;11.08;100.00;99029.09;4998963;28;20029;-75
2023/10/27 11:15:51;;;;;;;24.70;10.80;;;;;;;11.11;100.00;99038.69;4998908;28;20121;-75